Time;durP1;ratioP1;P1;durP2;ratioP2;P2;SDS_P1;SDS_P2;PMS_P1;PMS_P2;Temp;Humidity;BMP_temperature;BMP_pressure;BME280_temperature;BME280_humidity;BME280_pressure;Samples;Min_cycle;Max_cycle;Signal;HPM_P1;HPM_P2
2021/05/18 00:00:55;;;;;;;2.00;1.53;;;;;;;9.18;73.56;100015.41;5068840;28;20299;-74
2021/05/18 00:03:25;;;;;;;1.70;1.57;;;;;;;9.18;72.89;100021.59;5067964;28;20200;-74
2021/05/18 00:05:55;;;;;;;2.27;2.03;;;;;;;9.15;73.19;100026.34;5074017;28;20259;-74
2021/05/18 00:08:25;;;;;;;2.03;1.70;;;;;;;9.11;73.52;100019.50;5075364;28;20407;-74
2021/05/18 00:13:44;;;;;;;41.97;26.67;;;;;;;8.97;74.19;100024.06;5067845;28;20236;-74
2021/05/18 00:16:13;;;;;;;3.27;2.60;;;;;;;8.76;74.20;100004.19;5067846;28;20591;-74
2021/05/18 00:18:42;;;;;;;8.63;2.60;;;;;;;8.87;74.25;100024.81;5066020;28;20720;-74
2021/05/18 00:21:10;;;;;;;7.20;6.27;;;;;;;8.60;74.65;99979.50;5068013;28;20204;-74
2021/05/18 00:23:38;;;;;;;10.13;4.67;;;;;;;8.92;74.03;100031.56;5069120;28;20269;-74
2021/05/18 00:26:08;;;;;;;4.03;3.57;;;;;;;8.93;74.23;100032.44;5067094;28;20213;-74
2021/05/18 00:28:36;;;;;;;5.57;4.40;;;;;;;8.96;73.44;100038.41;5072454;28;20694;-74
2021/05/18 00:31:04;;;;;;;3.83;2.70;;;;;;;8.97;73.20;100040.13;5068071;28;20630;-74
2021/05/18 00:33:33;;;;;;;29.83;21.80;;;;;;;9.00;73.12;100045.25;5052852;28;20211;-74
2021/05/18 00:36:01;;;;;;;12.80;10.20;;;;;;;9.05;73.14;100041.38;5060882;28;20290;-74
2021/05/18 00:38:29;;;;;;;6.57;4.73;;;;;;;9.08;72.84;100033.13;5066556;28;20638;-74
2021/05/18 00:40:57;;;;;;;3.97;2.97;;;;;;;9.10;72.44;100033.88;5067516;28;20209;-74
2021/05/18 00:43:25;;;;;;;8.20;2.83;;;;;;;9.09;72.96;100040.19;5069579;28;20200;-74
2021/05/18 00:45:53;;;;;;;8.03;2.87;;;;;;;9.07;72.77;100036.78;5053811;28;20242;-74
2021/05/18 00:48:22;;;;;;;10.07;2.70;;;;;;;8.99;73.09;100038.19;5071508;28;20205;-74
2021/05/18 00:50:54;;;;;;;6.43;3.60;;;;;;;8.92;72.85;100025.38;5056158;28;20197;-74
2021/05/18 00:53:23;;;;;;;18.03;3.10;;;;;;;8.93;73.58;100035.97;5069830;28;20210;-74
2021/05/18 00:56:32;;;;;;;6.70;2.90;;;;;;;8.90;73.06;100033.50;5067278;28;20620;-74
2021/05/18 00:59:01;;;;;;;7.33;2.60;;;;;;;8.87;72.82;100033.69;5069622;28;20611;-74
2021/05/18 01:01:30;;;;;;;7.77;2.93;;;;;;;8.86;73.13;100025.78;5067688;28;20205;-68
2021/05/18 01:04:00;;;;;;;10.00;2.77;;;;;;;8.71;72.60;100012.56;5072644;28;20319;-68
2021/05/18 01:06:30;;;;;;;6.20;2.30;;;;;;;8.79;72.50;100028.06;5071655;28;20206;-68
2021/05/18 01:09:08;;;;;;;3.50;2.20;;;;;;;8.76;72.79;100030.94;5077822;28;20208;-68
2021/05/18 01:11:38;;;;;;;3.70;2.27;;;;;;;8.76;72.77;100041.66;5057587;28;20298;-68
2021/05/18 01:14:11;;;;;;;6.77;2.40;;;;;;;8.70;73.01;100034.06;5065254;28;20202;-68
2021/05/18 01:16:43;;;;;;;3.50;2.40;;;;;;;8.67;72.69;100042.31;5056696;28;20245;-73
2021/05/18 01:19:11;;;;;;;2.90;2.07;;;;;;;8.67;72.11;100055.72;5075171;28;20555;-68
2021/05/18 01:21:40;;;;;;;3.70;2.47;;;;;;;8.66;72.43;100056.69;5058894;28;20205;-67
2021/05/18 01:24:09;;;;;;;4.90;2.43;;;;;;;8.64;72.59;100062.13;5055962;28;20596;-74
2021/05/18 01:26:38;;;;;;;22.03;2.57;;;;;;;8.64;72.52;100064.81;5069770;28;20567;-74
2021/05/18 01:29:10;;;;;;;4.80;2.57;;;;;;;8.63;72.75;100063.09;5068491;28;20215;-74
2021/05/18 01:31:44;;;;;;;5.00;2.33;;;;;;;8.63;72.40;100063.09;5084665;28;20674;-68
2021/05/18 01:34:12;;;;;;;3.30;2.40;;;;;;;8.43;72.00;100041.38;5066800;28;20216;-68
2021/05/18 01:36:43;;;;;;;4.33;2.30;;;;;;;8.61;72.52;100074.88;5078890;28;20658;-74
2021/05/18 01:44:43;;;;;;;7.57;2.33;;;;;;;8.56;72.46;100077.84;5067477;28;20320;-67
2021/05/18 01:47:11;;;;;;;12.67;2.30;;;;;;;8.54;72.57;100085.13;5075905;28;20246;-74
2021/05/18 01:49:44;;;;;;;3.07;1.97;;;;;;;8.57;72.48;100081.38;5071875;28;20228;-74
2021/05/18 01:52:13;;;;;;;3.73;1.93;;;;;;;8.55;72.55;100091.34;5074279;28;20222;-74
2021/05/18 01:54:41;;;;;;;8.20;2.10;;;;;;;8.29;72.26;100048.53;5080466;28;20658;-68
2021/05/18 01:57:18;;;;;;;2.90;2.20;;;;;;;8.59;72.56;100092.88;5067430;28;20209;-68
2021/05/18 02:00:10;;;;;;;3.30;2.30;;;;;;;8.59;72.66;100088.38;5065348;28;20675;-68
2021/05/18 02:02:41;;;;;;;3.33;2.30;;;;;;;8.61;72.24;100082.91;5071870;28;20205;-68
2021/05/18 02:05:15;;;;;;;5.17;2.10;;;;;;;8.63;72.66;100080.97;5068183;28;20206;-68
2021/05/18 02:07:56;;;;;;;2.97;2.10;;;;;;;8.66;73.06;100084.31;5072979;28;20208;-68
2021/05/18 02:10:25;;;;;;;3.70;2.30;;;;;;;8.62;72.77;100066.75;5077124;28;20314;-68
2021/05/18 02:13:04;;;;;;;6.43;2.77;;;;;;;8.74;72.77;100089.09;5078935;28;20234;-73
2021/05/18 02:15:41;;;;;;;3.63;2.57;;;;;;;8.67;73.46;100079.81;5061024;28;20312;-73
2021/05/18 02:18:26;;;;;;;3.33;2.40;;;;;;;8.71;73.43;100095.53;5074892;28;20207;-74
2021/05/18 02:21:17;;;;;;;1068.10;595.50;;;;;;;8.46;73.82;100051.88;5106784;27;20624;-66
2021/05/18 02:26:32;;;;;;;10.70;5.40;;;;;;;8.75;74.08;100098.00;5069508;28;20208;-68
2021/05/18 02:29:03;;;;;;;11.23;5.10;;;;;;;8.85;73.93;100107.06;5070007;28;20635;-68
2021/05/18 02:31:32;;;;;;;9.27;7.80;;;;;;;8.68;73.40;100060.94;5070723;28;20196;-68
2021/05/18 02:34:23;;;;;;;10.17;5.03;;;;;;;9.03;73.37;100103.09;5060301;28;20237;-68
2021/05/18 02:36:51;;;;;;;9.50;4.83;;;;;;;9.12;73.43;100110.47;5070408;28;20201;-68
2021/05/18 02:39:20;;;;;;;9.00;5.73;;;;;;;9.19;72.83;100109.06;5082080;28;20790;-68
2021/05/18 02:41:48;;;;;;;10.40;5.80;;;;;;;9.27;73.07;100116.53;5069169;28;20597;-68
2021/05/18 02:44:22;;;;;;;13.17;3.13;;;;;;;9.30;73.80;100117.19;5069923;28;20232;-67
2021/05/18 02:49:57;;;;;;;5.60;3.03;;;;;;;9.29;73.50;100118.16;4972357;28;20664;-68
2021/05/18 02:52:25;;;;;;;18.50;5.10;;;;;;;9.36;73.47;100123.91;5050999;28;20235;-74
2021/05/18 02:54:56;;;;;;;8.37;4.00;;;;;;;9.43;73.24;100127.84;5108605;27;20205;-73
2021/05/18 02:57:32;;;;;;;12.00;3.10;;;;;;;9.48;73.03;100125.69;5075254;28;20275;-68
2021/05/18 03:00:03;;;;;;;25.27;3.40;;;;;;;9.52;73.42;100127.19;5071264;28;20201;-68
2021/05/18 03:02:31;;;;;;;12.13;5.73;;;;;;;9.54;74.01;100133.28;5069675;28;20632;-69
2021/05/18 03:04:59;;;;;;;11.87;3.97;;;;;;;9.56;74.66;100142.09;5072494;28;20261;-69
2021/05/18 03:07:26;;;;;;;24.70;3.50;;;;;;;9.56;75.05;100147.44;5078414;28;20229;-75
2021/05/18 03:09:55;;;;;;;20.43;3.37;;;;;;;9.58;74.43;100142.81;5085229;28;20245;-74
2021/05/18 03:12:22;;;;;;;23.20;4.10;;;;;;;9.62;74.47;100146.97;5081948;28;20243;-74
2021/05/18 03:14:50;;;;;;;14.20;3.50;;;;;;;9.47;74.82;100121.28;5072022;28;20198;-74
2021/05/18 03:17:18;;;;;;;19.67;3.57;;;;;;;9.67;74.32;100149.31;5073876;28;20198;-75
2021/05/18 03:19:46;;;;;;;30.87;3.87;;;;;;;9.26;74.65;100072.81;5069889;28;20211;-70
2021/05/18 03:22:14;;;;;;;20.37;3.00;;;;;;;9.72;75.66;100147.16;5067545;28;20188;-75
2021/05/18 03:24:42;;;;;;;23.27;2.90;;;;;;;9.74;76.70;100145.22;5069054;28;20207;-69
2021/05/18 03:27:12;;;;;;;41.73;3.40;;;;;;;9.74;77.15;100153.25;5068327;28;20289;-74
2021/05/18 03:29:42;;;;;;;62.10;3.73;;;;;;;9.77;76.87;100142.31;5072997;28;20218;-75
2021/05/18 03:34:55;;;;;;;64.33;3.30;;;;;;;9.89;76.88;100153.97;5070814;28;20241;-74
2021/05/18 03:37:26;;;;;;;48.10;2.97;;;;;;;9.89;77.82;100152.13;5060338;28;20208;-70
2021/05/18 03:39:58;;;;;;;33.43;2.90;;;;;;;9.93;77.78;100150.94;5076289;28;20646;-69
2021/05/18 03:42:30;;;;;;;49.60;3.10;;;;;;;9.86;80.16;100151.50;5066670;28;20226;-69
2021/05/18 03:45:09;;;;;;;56.07;2.93;;;;;;;9.67;82.61;100153.84;5086132;28;20629;-69
2021/05/18 03:53:36;;;;;;;43.90;2.40;;;;;;;9.65;83.60;100153.94;5005851;28;20206;-69
2021/05/18 03:59:01;;;;;;;17.27;2.33;;;;;;;9.86;82.15;100154.19;5068565;28;20691;-69
2021/05/18 04:04:17;;;;;;;27.00;3.13;;;;;;;10.08;81.27;100166.84;5070788;28;20584;-69
2021/05/18 04:12:31;;;;;;;21.03;2.40;;;;;;;9.94;80.95;100139.22;5067860;28;20243;-69
2021/05/18 04:17:53;;;;;;;27.60;2.33;;;;;;;10.30;80.46;100172.34;5066443;28;20273;-69
2021/05/18 04:20:37;;;;;;;15.23;2.53;;;;;;;10.43;79.26;100172.28;5076449;28;20219;-69
2021/05/18 04:23:29;;;;;;;12.67;2.17;;;;;;;10.55;78.47;100171.31;5073195;28;20694;-69
2021/05/18 04:26:14;;;;;;;13.53;2.30;;;;;;;10.57;78.70;100164.00;5068868;28;20227;-69
2021/05/18 04:54:06;;;;;;;5.57;3.23;;;;;;;11.81;78.80;100190.81;5066360;28;20206;-74
2021/05/18 04:59:27;;;;;;;1215.70;603.50;;;;;;;12.15;79.19;100192.56;5065461;28;20719;-68
2021/05/18 05:02:10;;;;;;;13.93;10.90;;;;;;;12.18;79.13;100192.31;5075553;28;20200;-68
2021/05/18 05:07:30;;;;;;;9.80;7.17;;;;;;;12.41;79.63;100199.31;5064077;28;20194;-68
2021/05/18 05:09:57;;;;;;;11.27;8.33;;;;;;;12.61;78.04;100203.88;5072440;28;20684;-68
2021/05/18 05:12:55;;;;;;;7.20;4.47;;;;;;;12.59;76.70;100165.44;5075303;28;20278;-74
2021/05/18 05:15:23;;;;;;;12.50;7.80;;;;;;;13.06;76.70;100206.28;5061851;28;20199;-72
2021/05/18 05:17:51;;;;;;;9.83;6.50;;;;;;;13.29;74.71;100215.97;5062805;28;20247;-72
2021/05/18 05:20:19;;;;;;;5.53;3.90;;;;;;;13.42;74.78;100214.88;5061576;28;20191;-71
2021/05/18 05:22:47;;;;;;;85.27;72.30;;;;;;;13.57;72.69;100214.38;5062015;28;20203;-73
2021/05/18 05:25:15;;;;;;;110.00;68.50;;;;;;;13.68;72.50;100216.13;5057705;28;20273;-67
2021/05/18 05:27:42;;;;;;;13.33;8.30;;;;;;;13.73;72.52;100224.66;5061303;28;20336;-73
2021/05/18 05:30:11;;;;;;;13.20;5.73;;;;;;;13.71;72.18;100218.53;5060473;28;20649;-73
2021/05/18 05:32:39;;;;;;;7.73;5.17;;;;;;;13.63;72.48;100221.06;5059194;28;20293;-73
2021/05/18 05:35:07;;;;;;;8.23;5.23;;;;;;;13.65;72.29;100219.09;5059032;28;20674;-73
2021/05/18 05:37:38;;;;;;;6.83;4.07;;;;;;;13.64;72.20;100214.69;5060462;28;20202;-74
2021/05/18 05:40:07;;;;;;;6.40;3.97;;;;;;;13.63;72.43;100213.84;5058347;28;20215;-74
2021/05/18 05:42:35;;;;;;;6.87;4.00;;;;;;;13.57;71.79;100205.44;5058546;28;20207;-74
2021/05/18 05:45:03;;;;;;;8.50;4.10;;;;;;;13.64;72.07;100212.84;5059780;28;20203;-74
2021/05/18 05:47:31;;;;;;;5.40;3.80;;;;;;;13.49;72.07;100214.22;5058828;28;20222;-74
2021/05/18 05:49:59;;;;;;;6.77;3.30;;;;;;;13.50;71.66;100215.94;5058673;28;20728;-74
2021/05/18 05:52:27;;;;;;;7.00;3.53;;;;;;;13.63;70.94;100212.97;5062590;28;20614;-74
2021/05/18 05:54:56;;;;;;;6.87;3.97;;;;;;;13.76;71.22;100220.81;5062674;28;20281;-74
2021/05/18 05:57:24;;;;;;;7.23;4.07;;;;;;;13.84;71.40;100219.16;5062126;28;20207;-74
2021/05/18 05:59:51;;;;;;;6.00;4.07;;;;;;;13.82;71.75;100204.09;5063483;28;20207;-74
2021/05/18 06:02:19;;;;;;;5.20;3.67;;;;;;;14.12;71.45;100216.69;5097381;28;20204;-74
2021/05/18 06:04:47;;;;;;;6.73;3.60;;;;;;;14.24;71.21;100212.84;5067409;28;20296;-74
2021/05/18 06:07:14;;;;;;;8.33;3.47;;;;;;;14.43;70.85;100215.59;5062294;28;20204;-74
2021/05/18 06:09:44;;;;;;;4.57;3.40;;;;;;;14.64;70.32;100212.72;5064319;28;20197;-74
2021/05/18 06:12:26;;;;;;;5.47;3.53;;;;;;;14.88;71.12;100204.19;5051592;28;20751;-74
2021/05/18 06:15:12;;;;;;;5.67;3.53;;;;;;;15.26;69.47;100207.78;5048801;28;20703;-74
2021/05/18 06:29:27;;;;;;;6.27;4.00;;;;;;;15.41;69.28;100209.03;5057366;28;20202;-69
2021/05/18 06:35:08;;;;;;;4.70;3.00;;;;;;;17.69;66.27;100221.06;5063394;28;20204;-66
2021/05/18 06:43:25;;;;;;;3.33;2.77;;;;;;;18.51;62.68;100227.59;5001042;28;20230;-73
2021/05/18 06:48:49;;;;;;;5.83;3.07;;;;;;;19.10;58.48;100213.88;5052090;28;20259;-73
2021/05/18 06:51:16;;;;;;;5.83;3.20;;;;;;;19.16;56.60;100172.34;5067161;28;20213;-73
2021/05/18 06:53:44;;;;;;;4.90;3.23;;;;;;;19.75;55.80;100222.75;5068243;28;20209;-73
2021/05/18 06:56:12;;;;;;;4.97;3.13;;;;;;;20.03;55.02;100220.41;5063385;28;20209;-74
2021/05/18 07:01:28;;;;;;;5.53;2.83;;;;;;;20.45;56.39;100222.75;5045470;28;20228;-73
2021/05/18 07:04:00;;;;;;;4.20;3.10;;;;;;;20.66;55.18;100223.97;5066434;28;20216;-67
2021/05/18 07:06:43;;;;;;;6.87;3.00;;;;;;;20.93;53.55;100234.34;5068018;28;20223;-68
2021/05/18 07:09:12;;;;;;;3.73;3.10;;;;;;;21.21;51.89;100234.63;5065372;28;20316;-68
2021/05/18 07:11:39;;;;;;;6.80;3.80;;;;;;;21.36;51.38;100230.03;5063881;28;20237;-74
2021/05/18 07:14:10;;;;;;;7.53;3.33;;;;;;;21.29;50.31;100196.31;5064706;28;20288;-73
2021/05/18 07:16:39;;;;;;;4.20;3.33;;;;;;;21.70;49.27;100247.78;5066375;28;20194;-67
2021/05/18 07:19:07;;;;;;;5.70;3.70;;;;;;;21.85;49.17;100240.44;5065106;28;20224;-67
2021/05/18 07:21:34;;;;;;;6.10;3.40;;;;;;;22.07;47.40;100252.34;5064937;28;20276;-68
2021/05/18 07:24:08;;;;;;;3.80;3.00;;;;;;;22.03;47.50;100218.16;5068090;28;20205;-67
2021/05/18 07:26:35;;;;;;;3.03;2.63;;;;;;;22.48;47.18;100254.50;5066751;28;20406;-67
2021/05/18 07:29:04;;;;;;;4.10;3.00;;;;;;;22.67;45.58;100261.25;5069207;28;20280;-73
2021/05/18 07:31:32;;;;;;;4.73;3.20;;;;;;;22.73;46.63;100258.59;5066068;28;20735;-74
2021/05/18 07:34:00;;;;;;;3.27;2.87;;;;;;;22.60;46.95;100263.91;5068411;28;20281;-73
2021/05/18 07:36:28;;;;;;;6.63;3.37;;;;;;;22.16;49.43;100267.59;5064889;28;21170;-73
2021/05/18 07:38:56;;;;;;;4.50;3.03;;;;;;;22.49;48.64;100265.25;5057210;28;20206;-73
2021/05/18 07:41:24;;;;;;;5.63;3.80;;;;;;;22.38;49.16;100273.13;5060957;28;20270;-73
2021/05/18 07:43:52;;;;;;;5.23;3.57;;;;;;;22.36;48.83;100269.75;5061419;28;20644;-73
2021/05/18 07:46:22;;;;;;;4.00;3.27;;;;;;;22.58;48.11;100275.03;5060637;28;20224;-73
2021/05/18 07:51:45;;;;;;;2.40;2.20;;;;;;;23.12;46.51;100277.31;5061483;28;20245;-72
2021/05/18 07:59:58;;;;;;;2.40;2.20;;;;;;;23.77;44.68;100269.84;5053314;28;20213;-73
2021/05/18 08:05:18;;;;;;;2.77;2.10;;;;;;;23.59;45.72;100275.00;5063017;28;20224;-73
2021/05/18 08:07:50;;;;;;;2.10;1.90;;;;;;;23.76;45.96;100279.13;5062475;28;20241;-74
2021/05/18 08:10:22;;;;;;;1.73;1.63;;;;;;;23.60;46.41;100268.47;5064541;28;20695;-74
2021/05/18 08:12:49;;;;;;;3.83;1.90;;;;;;;23.78;44.91;100277.00;5065387;28;20229;-73
2021/05/18 08:18:11;;;;;;;1.83;1.70;;;;;;;24.18;42.95;100283.56;5061764;28;20206;-73
2021/05/18 10:34:55;;;;;;;1.20;1.20;;;;;;;24.00;42.58;100316.19;5068934;28;20280;-67
2021/05/18 10:37:39;;;;;;;1.27;1.27;;;;;;;24.30;41.70;100317.66;5067492;28;20224;-73
2021/05/18 10:40:34;;;;;;;1.37;1.30;;;;;;;24.25;40.10;100311.06;5064509;28;20209;-76
2021/05/18 10:43:11;;;;;;;1.10;1.10;;;;;;;24.48;41.55;100321.75;5016000;28;20209;-73
2021/05/18 10:46:02;;;;;;;1.50;1.40;;;;;;;24.65;40.68;100323.09;5068480;28;20204;-68
2021/05/18 10:48:53;;;;;;;1.50;1.40;;;;;;;24.46;41.62;100322.78;5067480;28;20255;-68
2021/05/18 10:51:36;;;;;;;1.10;1.10;;;;;;;24.32;41.78;100307.31;5069570;28;20271;-72
2021/05/18 10:54:18;;;;;;;1.20;1.20;;;;;;;24.80;40.58;100332.03;5070939;28;20578;-68
2021/05/18 10:57:18;;;;;;;1.63;1.20;;;;;;;24.65;40.25;100329.44;5063932;28;20205;-67
2021/05/18 10:59:54;;;;;;;1.10;1.10;;;;;;;24.50;41.08;100331.50;5067417;28;20194;-68
2021/05/18 11:02:25;;;;;;;1.13;1.10;;;;;;;24.58;41.53;100327.72;5069103;28;20199;-68
2021/05/18 11:04:57;;;;;;;1.07;1.07;;;;;;;24.64;41.64;100289.28;5068602;28;20201;-68
2021/05/18 11:07:34;;;;;;;1.20;1.20;;;;;;;24.68;40.67;100318.03;5068465;28;20280;-68
2021/05/18 11:10:07;;;;;;;1.37;1.27;;;;;;;24.85;40.99;100310.25;5068968;28;20223;-68
2021/05/18 11:12:36;;;;;;;1.33;1.23;;;;;;;24.54;40.69;100224.84;5065218;28;20781;-68
2021/05/18 11:15:10;;;;;;;1.10;1.10;;;;;;;25.13;40.01;100325.78;5049728;28;20728;-68
2021/05/18 11:17:39;;;;;;;2.33;1.10;;;;;;;24.93;40.31;100273.50;5065734;28;20197;-68
2021/05/18 11:20:13;;;;;;;1.43;1.33;;;;;;;25.30;38.11;100316.91;5070139;28;20205;-69
2021/05/18 11:25:50;;;;;;;1.50;1.40;;;;;;;25.09;40.76;100330.84;5074262;28;20192;-73
2021/05/18 11:28:23;;;;;;;1.37;1.30;;;;;;;25.34;40.67;100329.19;5074704;28;20192;-73
2021/05/18 11:30:53;;;;;;;1.37;1.27;;;;;;;25.45;40.61;100327.72;5077325;28;20624;-73
2021/05/18 11:33:28;;;;;;;1.30;1.20;;;;;;;25.33;40.67;100327.47;5068808;28;20213;-73
2021/05/18 11:36:04;;;;;;;2.10;1.20;;;;;;;24.98;38.87;100252.59;5069108;28;20201;-68
2021/05/18 11:38:34;;;;;;;1.67;1.57;;;;;;;25.38;40.27;100329.59;5054490;28;20196;-73
2021/05/18 11:41:03;;;;;;;1.60;1.50;;;;;;;25.15;40.19;100330.03;5069480;28;20189;-68
2021/05/18 11:43:35;;;;;;;1.40;1.40;;;;;;;25.17;40.29;100319.66;5067196;28;20720;-68
2021/05/18 11:46:08;;;;;;;1.80;1.30;;;;;;;25.10;40.68;100302.28;5058315;28;20201;-75
2021/05/18 11:48:39;;;;;;;1.13;1.13;;;;;;;25.00;40.70;100313.69;5067321;28;20687;-76
2021/05/18 11:51:11;;;;;;;1.33;1.27;;;;;;;24.80;38.56;100311.91;5071363;28;20201;-75
2021/05/18 11:53:42;;;;;;;1.70;1.20;;;;;;;24.38;40.42;100312.00;5066177;28;20754;-76
2021/05/18 11:56:19;;;;;;;1.67;1.30;;;;;;;24.03;41.27;100310.31;5066265;28;20271;-74
2021/05/18 11:58:47;;;;;;;1.73;1.10;;;;;;;24.27;41.64;100308.97;5068798;28;20251;-73
2021/05/18 12:01:15;;;;;;;1.43;1.23;;;;;;;24.35;40.50;100304.16;5064708;28;20209;-74
2021/05/18 12:03:43;;;;;;;1.30;1.13;;;;;;;24.60;40.30;100299.00;5073362;28;20205;-74
2021/05/18 12:06:15;;;;;;;1.00;1.00;;;;;;;24.56;39.67;100296.88;5068987;28;20710;-74
2021/05/18 12:08:44;;;;;;;1.00;1.00;;;;;;;24.18;40.31;100247.88;5066929;28;20238;-74
2021/05/18 12:11:15;;;;;;;1.30;1.20;;;;;;;24.55;40.38;100311.66;5068892;28;20216;-75
2021/05/18 12:13:49;;;;;;;1.30;1.20;;;;;;;24.04;40.34;100241.50;5069425;28;20233;-74
2021/05/18 12:16:19;;;;;;;1.27;1.27;;;;;;;24.19;39.90;100299.00;5056495;28;20679;-75
2021/05/18 12:18:52;;;;;;;1.90;1.13;;;;;;;24.29;40.18;100306.88;5068488;28;20701;-74
2021/05/18 12:21:22;;;;;;;0.93;0.93;;;;;;;24.24;40.20;100304.72;5063279;28;20676;-75
2021/05/18 12:24:12;;;;;;;3.60;1.10;;;;;;;24.39;39.81;100305.44;5074019;28;20215;-74
2021/05/18 12:26:52;;;;;;;1.03;1.03;;;;;;;24.27;40.35;100300.72;5069197;28;20680;-75
2021/05/18 12:29:34;;;;;;;1.43;1.10;;;;;;;24.52;40.46;100310.16;5068535;28;20197;-74
2021/05/18 12:32:19;;;;;;;1.57;1.00;;;;;;;24.56;38.76;100285.88;5068690;28;20636;-74
2021/05/18 12:34:48;;;;;;;1.00;1.00;;;;;;;24.55;39.40;100307.00;5077782;28;20268;-74
2021/05/18 12:37:16;;;;;;;1.77;1.30;;;;;;;24.18;39.88;100300.03;5072537;28;20233;-74
2021/05/18 12:39:45;;;;;;;1.87;1.23;;;;;;;24.36;40.19;100308.59;5069707;28;20285;-74
2021/05/18 12:42:15;;;;;;;0.90;0.90;;;;;;;24.53;39.39;100311.00;5063657;28;20233;-74
2021/05/18 12:44:53;;;;;;;0.90;0.90;;;;;;;24.29;39.43;100313.22;5072005;28;20196;-74
2021/05/18 12:47:27;;;;;;;1.00;1.00;;;;;;;24.27;39.67;100304.31;5068917;28;20205;-74
2021/05/18 12:49:55;;;;;;;1.20;1.10;;;;;;;24.11;39.76;100307.38;5072230;28;20228;-74
2021/05/18 12:52:23;;;;;;;0.97;0.97;;;;;;;23.88;39.54;100255.56;5067744;28;20189;-73
2021/05/18 12:54:54;;;;;;;0.97;0.97;;;;;;;24.16;40.03;100302.13;5072909;28;20207;-74
2021/05/18 12:57:24;;;;;;;1.20;1.20;;;;;;;23.96;40.09;100287.47;5068691;28;20277;-74
2021/05/18 13:00:06;;;;;;;1.20;1.20;;;;;;;23.65;39.63;100305.22;5068488;28;20228;-74
2021/05/18 13:02:37;;;;;;;1.53;1.30;;;;;;;23.31;40.48;100292.25;5077708;28;20850;-74
2021/05/18 13:05:12;;;;;;;1.20;1.10;;;;;;;23.50;41.21;100302.50;5072102;28;20192;-74
2021/05/18 13:07:42;;;;;;;1.00;1.00;;;;;;;23.25;40.84;100298.50;5066656;28;20196;-74
2021/05/18 13:10:16;;;;;;;1.53;1.43;;;;;;;23.42;40.82;100296.34;5076538;28;20284;-74
2021/05/18 13:12:44;;;;;;;1.10;1.10;;;;;;;23.37;41.00;100294.19;5067132;28;20260;-74
2021/05/18 13:15:19;;;;;;;1.00;1.00;;;;;;;23.48;39.58;100295.53;5068137;28;20205;-74
2021/05/18 13:17:54;;;;;;;0.93;0.93;;;;;;;23.32;40.85;100282.13;5069397;28;20211;-74
2021/05/18 13:20:40;;;;;;;1.20;1.10;;;;;;;23.36;40.71;100284.28;5069626;28;20270;-73
2021/05/18 13:23:15;;;;;;;2.10;1.10;;;;;;;23.22;40.35;100298.91;5072813;28;20197;-74
2021/05/18 13:28:28;;;;;;;0.90;0.90;;;;;;;23.00;41.10;100289.00;5070418;28;20193;-69
2021/05/18 13:30:57;;;;;;;0.90;0.90;;;;;;;22.75;40.89;100289.34;5066891;28;20223;-69
2021/05/18 13:33:25;;;;;;;1.03;0.93;;;;;;;22.83;41.01;100283.78;5066481;28;20623;-69
2021/05/18 13:35:52;;;;;;;1.03;1.03;;;;;;;22.75;41.13;100285.78;5067993;28;20525;-69
2021/05/18 13:38:20;;;;;;;1.00;1.00;;;;;;;22.80;41.01;100278.66;5067424;28;20221;-69
2021/05/18 13:40:49;;;;;;;1.13;1.03;;;;;;;22.65;39.95;100282.47;5076776;28;20209;-68
2021/05/18 13:43:16;;;;;;;2.20;2.10;;;;;;;22.60;40.91;100283.91;5068016;28;20222;-69
2021/05/18 13:45:44;;;;;;;1.30;1.20;;;;;;;22.20;40.17;100281.75;5072445;28;20239;-69
2021/05/18 13:48:13;;;;;;;1.00;1.00;;;;;;;22.44;40.83;100278.69;5071697;28;20207;-69
2021/05/18 13:50:40;;;;;;;1.23;1.13;;;;;;;22.18;40.12;100281.94;5068762;28;20220;-70
2021/05/18 13:53:08;;;;;;;1.07;0.80;;;;;;;22.23;41.30;100278.63;5070150;28;20749;-68
2021/05/18 13:55:36;;;;;;;0.90;0.90;;;;;;;22.31;41.54;100289.44;5081784;28;20303;-68
2021/05/18 13:58:04;;;;;;;1.00;1.00;;;;;;;22.35;40.05;100292.66;5063374;28;20570;-68
2021/05/18 14:00:31;;;;;;;1.20;0.90;;;;;;;22.31;40.70;100297.66;5064914;28;20463;-67
2021/05/18 14:02:59;;;;;;;0.80;0.80;;;;;;;22.36;41.01;100286.16;5074282;28;20509;-74
2021/05/18 14:05:29;;;;;;;1.07;0.90;;;;;;;22.32;41.08;100288.41;5070220;28;20749;-74
2021/05/18 14:11:06;;;;;;;2.30;0.90;;;;;;;22.15;40.92;100290.53;5081159;28;20840;-74
2021/05/18 14:13:37;;;;;;;1.93;0.93;;;;;;;22.09;41.54;100287.72;5082854;28;20221;-74
2021/05/18 14:16:05;;;;;;;0.80;0.80;;;;;;;21.98;41.05;100280.78;5072534;28;20254;-74
2021/05/18 14:18:34;;;;;;;1.93;0.90;;;;;;;22.11;41.82;100282.91;5078989;28;20251;-74
2021/05/18 14:21:03;;;;;;;0.90;0.90;;;;;;;22.01;41.81;100277.66;5081808;28;20927;-74
2021/05/18 14:23:37;;;;;;;1.13;1.10;;;;;;;21.78;41.81;100282.41;5070541;28;20658;-74
2021/05/18 14:26:08;;;;;;;0.90;0.90;;;;;;;21.83;42.49;100282.69;5072218;28;20272;-74
2021/05/18 14:28:37;;;;;;;1.43;1.00;;;;;;;21.89;41.82;100284.66;5083159;28;20204;-76
2021/05/18 14:31:06;;;;;;;0.90;0.90;;;;;;;21.89;41.59;100287.38;5074978;28;20201;-76
2021/05/18 14:33:35;;;;;;;1.00;0.90;;;;;;;21.80;41.02;100286.63;5073222;28;20207;-76
2021/05/18 14:36:06;;;;;;;4.00;0.90;;;;;;;21.68;41.26;100282.66;5073305;28;20196;-76
2021/05/18 14:38:36;;;;;;;0.90;0.90;;;;;;;21.49;41.33;100288.69;5081666;28;20207;-76
2021/05/18 14:44:08;;;;;;;0.80;0.80;;;;;;;21.18;41.68;100280.56;5070569;28;20280;-76
2021/05/18 14:46:44;;;;;;;2.00;1.00;;;;;;;21.26;42.69;100281.38;5072893;28;20298;-75
2021/05/18 14:54:52;;;;;;;1.00;1.00;;;;;;;21.30;42.15;100274.50;5067325;28;20221;-69
2021/05/18 14:57:20;;;;;;;1.10;1.00;;;;;;;21.31;41.80;100276.19;5062967;28;20208;-70
2021/05/18 14:59:49;;;;;;;1.00;0.90;;;;;;;21.05;42.47;100238.31;5063253;28;20201;-72
2021/05/18 15:02:18;;;;;;;2.03;1.17;;;;;;;21.19;41.95;100277.66;5060635;28;20288;-70
2021/05/18 15:04:46;;;;;;;1.10;1.10;;;;;;;21.21;42.70;100266.53;5059712;28;20328;-69
2021/05/18 15:07:14;;;;;;;0.97;0.90;;;;;;;21.19;42.63;100274.06;5061888;28;20270;-69
2021/05/18 15:09:43;;;;;;;1.90;1.10;;;;;;;21.21;43.33;100266.53;5068056;28;20737;-69
2021/05/18 15:12:11;;;;;;;2.33;1.20;;;;;;;21.04;43.34;100263.09;5066729;28;20893;-69
2021/05/18 15:14:39;;;;;;;1.40;1.30;;;;;;;21.11;43.58;100264.03;5066474;28;20223;-69
2021/05/18 15:17:07;;;;;;;1.40;1.20;;;;;;;20.91;43.54;100268.31;5070248;28;20207;-68
2021/05/18 15:19:35;;;;;;;1.20;1.10;;;;;;;20.97;43.90;100267.59;5060423;28;20244;-69
2021/05/18 15:22:04;;;;;;;1.30;1.20;;;;;;;20.96;43.92;100260.44;5069312;28;20628;-69
2021/05/18 15:24:33;;;;;;;1.37;1.27;;;;;;;20.99;44.19;100260.06;5065688;28;20202;-69
2021/05/18 15:27:01;;;;;;;1.17;1.10;;;;;;;20.82;42.96;100263.97;5068673;28;20205;-69
2021/05/18 15:29:28;;;;;;;1.00;1.00;;;;;;;20.91;44.06;100271.06;5071949;28;20205;-70
2021/05/18 15:31:56;;;;;;;0.97;0.97;;;;;;;20.89;43.97;100270.41;5067898;28;20208;-69
2021/05/18 15:34:25;;;;;;;0.90;0.90;;;;;;;20.78;43.91;100269.75;5068651;28;20232;-68
2021/05/18 15:36:55;;;;;;;1.00;1.00;;;;;;;20.38;44.10;100207.25;5070448;28;20210;-68
2021/05/18 15:39:24;;;;;;;1.40;1.30;;;;;;;20.67;44.78;100270.19;5063917;28;20656;-68
2021/05/18 15:41:53;;;;;;;1.33;1.10;;;;;;;20.68;44.80;100274.63;5067058;28;20211;-69
2021/05/18 15:44:21;;;;;;;1.07;1.00;;;;;;;20.70;45.01;100269.84;5077038;28;20197;-69
2021/05/18 15:46:50;;;;;;;1.10;1.10;;;;;;;20.59;45.12;100253.88;5061670;28;20257;-68
2021/05/18 15:49:18;;;;;;;0.90;0.90;;;;;;;20.76;45.65;100274.56;5064613;28;20216;-68
2021/05/18 15:51:46;;;;;;;1.20;1.10;;;;;;;20.67;45.22;100266.63;5070024;28;20254;-69
2021/05/18 15:54:14;;;;;;;1.20;1.10;;;;;;;20.62;45.53;100275.34;5072547;28;20227;-69
2021/05/18 15:56:42;;;;;;;1.00;1.00;;;;;;;20.60;45.66;100271.97;5068088;28;20202;-68
2021/05/18 15:59:12;;;;;;;1.30;1.30;;;;;;;20.57;45.58;100268.75;5068280;28;20204;-69
2021/05/18 16:01:40;;;;;;;1.20;1.10;;;;;;;20.56;45.50;100265.16;5074596;28;20222;-72
2021/05/18 16:04:09;;;;;;;1.00;1.00;;;;;;;20.50;45.30;100265.00;5066357;28;20204;-72
2021/05/18 16:06:40;;;;;;;1.10;1.10;;;;;;;20.14;45.76;100228.19;5064211;28;20242;-71